Observation data for Plains on 10/18/2019      Previous  Date       Current Mesonet Observations  Soil Data  Daily Summary Page  Observations in Plain Language
KPPS 180500Z 18011KT 15/03 A2987 RMK A01 T01530033  RH  045%=      5-min Rain = 0
KPPS 180505Z 18013KT 16/04 A2987 RMK A01 T01560038  RH  046%=      5-min Rain = 0
KPPS 180510Z 18015G20KT 16/05 A2986 RMK A01 T01630045  RH  046%=      5-min Rain = 0
KPPS 180515Z 18014KT 17/05 A2986 RMK A01 T01650047  RH  046%=      5-min Rain = 0
KPPS 180520Z 18013KT 16/05 A2986 RMK A01 T01630050  RH  048%=      5-min Rain = 0
KPPS 180525Z 18013KT 16/05 A2986 RMK A01 T01620052  RH  049%=      5-min Rain = 0
KPPS 180530Z 18013KT 16/05 A2986 RMK A01 T01610054  RH  050%=      5-min Rain = 0
KPPS 180535Z 18013KT 16/05 A2986 RMK A01 T01610054  RH  050%=      5-min Rain = 0
KPPS 180540Z 18014KT 16/06 A2986 RMK A01 T01610056  RH  051%=      5-min Rain = 0
KPPS 180545Z 18014KT 16/06 A2986 RMK A01 T01600058  RH  052%=      5-min Rain = 0
KPPS 180550Z 18013KT 16/06 A2986 RMK A01 T01590060  RH  053%=      5-min Rain = 0
KPPS 180555Z 18013G18KT 16/06 A2986 RMK A01 T01590061  RH  054%=      5-min Rain = 0
KPPS 180600Z 18012KT 16/06 A2986 RMK A01 T01570062  RH  055%=      5-min Rain = 0
KPPS 180605Z 18013KT 16/06 A2986 RMK A01 T01570064  RH  055%=      5-min Rain = 0
KPPS 180610Z 18012KT 16/07 A2986 RMK A01 T01560066  RH  056%=      5-min Rain = 0
KPPS 180615Z 18012KT 16/07 A2986 RMK A01 T01560067  RH  057%=      5-min Rain = 0
KPPS 180620Z 18012KT 16/07 A2986 RMK A01 T01550068  RH  057%=      5-min Rain = 0
KPPS 180625Z 18012KT 15/07 A2985 RMK A01 T01540069  RH  058%=      5-min Rain = 0
KPPS 180630Z 18013KT 15/07 A2985 RMK A01 T01530070  RH  059%=      5-min Rain = 0
KPPS 180635Z 18012KT 15/07 A2985 RMK A01 T01520071  RH  060%=      5-min Rain = 0
KPPS 180640Z 18012KT 15/07 A2985 RMK A01 T01510071  RH  060%=      5-min Rain = 0
KPPS 180645Z 18010KT 15/07 A2985 RMK A01 T01490071  RH  061%=      5-min Rain = 0
KPPS 180650Z 18010KT 15/07 A2985 RMK A01 T01470072  RH  062%=      5-min Rain = 0
KPPS 180655Z 18009KT 15/07 A2985 RMK A01 T01450072  RH  063%=      5-min Rain = 0
KPPS 180700Z 18010KT 14/07 A2985 RMK A01 T01430072  RH  064%=      5-min Rain = 0
KPPS 180705Z 18009KT 14/07 A2985 RMK A01 T01410072  RH  065%=      5-min Rain = 0
KPPS 180710Z 18009KT 14/07 A2985 RMK A01 T01400073  RH  066%=      5-min Rain = 0
KPPS 180715Z 18010KT 14/07 A2984 RMK A01 T01390074  RH  067%=      5-min Rain = 0
KPPS 180720Z 17009KT 14/08 A2984 RMK A01 T01390075  RH  067%=      5-min Rain = 0
KPPS 180725Z 17010KT 14/08 A2984 RMK A01 T01400077  RH  068%=      5-min Rain = 0
KPPS 180730Z 17010KT 14/08 A2984 RMK A01 T01400079  RH  069%=      5-min Rain = 0
KPPS 180735Z 17010KT 14/08 A2984 RMK A01 T01400080  RH  069%=      5-min Rain = 0
KPPS 180740Z 17010KT 14/08 A2984 RMK A01 T01400081  RH  070%=      5-min Rain = 0
KPPS 180745Z 17010KT 14/08 A2984 RMK A01 T01390082  RH  070%=      5-min Rain = 0
KPPS 180750Z 18010KT 14/08 A2984 RMK A01 T01380083  RH  071%=      5-min Rain = 0
KPPS 180755Z 17009KT 14/08 A2984 RMK A01 T01370083  RH  072%=      5-min Rain = 0
KPPS 180800Z 17009KT 14/08 A2984 RMK A01 T01350083  RH  073%=      5-min Rain = 0
KPPS 180805Z 17009KT 13/08 A2984 RMK A01 T01330083  RH  074%=      5-min Rain = 0
KPPS 180810Z 17009KT 13/08 A2983 RMK A01 T01330084  RH  074%=      5-min Rain = 0
KPPS 180815Z 17008KT 13/08 A2984 RMK A01 T01320084  RH  075%=      5-min Rain = 0
KPPS 180820Z 18008KT 13/09 A2984 RMK A01 T01310085  RH  076%=      5-min Rain = 0
KPPS 180825Z 18008KT 13/09 A2984 RMK A01 T01290085  RH  077%=      5-min Rain = 0
KPPS 180830Z 18008KT 13/09 A2984 RMK A01 T01280085  RH  077%=      5-min Rain = 0
KPPS 180835Z 18009KT 13/09 A2984 RMK A01 T01260085  RH  078%=      5-min Rain = 0
KPPS 180840Z 18009KT 13/09 A2983 RMK A01 T01260085  RH  079%=      5-min Rain = 0
KPPS 180845Z 18009KT 13/09 A2984 RMK A01 T01250085  RH  079%=      5-min Rain = 0
KPPS 180850Z 18009KT 12/09 A2983 RMK A01 T01230085  RH  080%=      5-min Rain = 0
KPPS 180855Z 18008KT 12/09 A2983 RMK A01 T01220085  RH  080%=      5-min Rain = 0
KPPS 180900Z 18008KT 12/09 A2983 RMK A01 T01200085  RH  081%=      5-min Rain = 0
KPPS 180905Z 18008KT 12/09 A2983 RMK A01 T01200085  RH  082%=      5-min Rain = 0
KPPS 180910Z 18009KT 12/09 A2983 RMK A01 T01200086  RH  082%=      5-min Rain = 0
KPPS 180915Z 18009KT 12/09 A2983 RMK A01 T01190086  RH  082%=      5-min Rain = 0
KPPS 180920Z 18008KT 12/09 A2983 RMK A01 T01190086  RH  083%=      5-min Rain = 0
KPPS 180925Z 18008KT 12/09 A2983 RMK A01 T01170086  RH  083%=      5-min Rain = 0
KPPS 180930Z 17008KT 12/09 A2982 RMK A01 T01170086  RH  084%=      5-min Rain = 0
KPPS 180935Z 17009KT 12/09 A2982 RMK A01 T01170087  RH  084%=      5-min Rain = 0
KPPS 180940Z 17008KT 12/09 A2982 RMK A01 T01180087  RH  084%=      5-min Rain = 0
KPPS 180945Z 17008KT 12/09 A2982 RMK A01 T01170087  RH  084%=      5-min Rain = 0
KPPS 180950Z 17008KT 12/09 A2982 RMK A01 T01170087  RH  084%=      5-min Rain = 0
KPPS 180955Z 17008KT 12/09 A2982 RMK A01 T01160087  RH  085%=      5-min Rain = 0
KPPS 181000Z 17008KT 12/09 A2982 RMK A01 T01150087  RH  085%=      5-min Rain = 0
KPPS 181005Z 17008KT 11/09 A2982 RMK A01 T01140087  RH  086%=      5-min Rain = 0
KPPS 181010Z 17008KT 11/09 A2982 RMK A01 T01140088  RH  086%=      5-min Rain = 0
KPPS 181015Z 16007KT 12/09 A2982 RMK A01 T01150088  RH  086%=      5-min Rain = 0
KPPS 181020Z 16007KT 12/09 A2982 RMK A01 T01150088  RH  086%=      5-min Rain = 0
KPPS 181025Z 16008KT 11/09 A2982 RMK A01 T01130088  RH  087%=      5-min Rain = 0
KPPS 181030Z 17007KT 11/09 A2982 RMK A01 T01120087  RH  087%=      5-min Rain = 0
KPPS 181035Z 17007KT 11/09 A2982 RMK A01 T01090086  RH  088%=      5-min Rain = 0
KPPS 181040Z 17007KT 11/09 A2982 RMK A01 T01060085  RH  089%=      5-min Rain = 0
KPPS 181045Z 17008KT 11/09 A2981 RMK A01 T01060086  RH  090%=      5-min Rain = 0
KPPS 181050Z 18009KT 11/09 A2981 RMK A01 T01080088  RH  090%=      5-min Rain = 0
KPPS 181055Z 18009KT 11/09 A2981 RMK A01 T01100089  RH  090%=      5-min Rain = 0
KPPS 181100Z 18008KT 11/09 A2981 RMK A01 T01100089  RH  090%=      5-min Rain = 0
KPPS 181105Z 18008KT 11/09 A2981 RMK A01 T01100090  RH  090%=      5-min Rain = 0
KPPS 181110Z 17008KT 11/09 A2981 RMK A01 T01100090  RH  090%=      5-min Rain = 0
KPPS 181115Z 17008KT 11/09 A2981 RMK A01 T01100090  RH  090%=      5-min Rain = 0
KPPS 181120Z 18008KT 11/09 A2981 RMK A01 T01100090  RH  090%=      5-min Rain = 0
KPPS 181125Z 17008KT 11/09 A2981 RMK A01 T01100091  RH  090%=      5-min Rain = 0
KPPS 181130Z 18009KT 11/09 A2981 RMK A01 T01110091  RH  090%=      5-min Rain = 0
KPPS 181135Z 18009KT 11/09 A2981 RMK A01 T01120092  RH  090%=      5-min Rain = 0
KPPS 181140Z 18008KT 11/09 A2981 RMK A01 T01120092  RH  090%=      5-min Rain = 0
KPPS 181145Z 18008KT 11/09 A2981 RMK A01 T01120092  RH  090%=      5-min Rain = 0
KPPS 181150Z 18008KT 11/09 A2981 RMK A01 T01120092  RH  090%=      5-min Rain = 0
KPPS 181155Z 18008KT 11/09 A2981 RMK A01 T01130092  RH  090%=      5-min Rain = 0
KPPS 181200Z 19007KT 11/09 A2981 RMK A01 T01120092  RH  090%=      5-min Rain = 0
KPPS 181205Z 19007KT 11/09 A2981 RMK A01 T01120092  RH  090%=      5-min Rain = 0
KPPS 181210Z 19007KT 11/09 A2981 RMK A01 T01120092  RH  090%=      5-min Rain = 0
KPPS 181215Z 19006KT 11/09 A2981 RMK A01 T01120092  RH  090%=      5-min Rain = 0
KPPS 181220Z 19007KT 11/09 A2981 RMK A01 T01110092  RH  091%=      5-min Rain = 0
KPPS 181225Z 19007KT 11/09 A2981 RMK A01 T01120092  RH  090%=      5-min Rain = 0
KPPS 181230Z 19007KT 11/09 A2981 RMK A01 T01110092  RH  091%=      5-min Rain = 0
KPPS 181235Z 19007KT 11/09 A2981 RMK A01 T01120092  RH  090%=      5-min Rain = 0
KPPS 181240Z 19007KT 11/09 A2981 RMK A01 T01120092  RH  090%=      5-min Rain = 0
KPPS 181245Z 19007KT 11/09 A2981 RMK A01 T01110092  RH  091%=      5-min Rain = 0
KPPS 181250Z 20006KT 11/09 A2981 RMK A01 T01120092  RH  090%=      5-min Rain = 0
KPPS 181255Z 19006KT 11/09 A2981 RMK A01 T01110092  RH  090%=      5-min Rain = 0
KPPS 181300Z 19006KT 11/09 A2981 RMK A01 T01100091  RH  091%=      5-min Rain = 0
KPPS 181305Z 19008KT 11/09 A2981 RMK A01 T01090091  RH  092%=      5-min Rain = 0
KPPS 181310Z 19008KT 11/09 A2981 RMK A01 T01100092  RH  091%=      5-min Rain = 0
KPPS 181315Z 19010KT 11/09 A2981 RMK A01 T01120093  RH  090%=      5-min Rain = 0
KPPS 181320Z 20009KT 12/09 A2981 RMK A01 T01150093  RH  089%=      5-min Rain = 0
KPPS 181325Z 20008KT 12/09 A2981 RMK A01 T01160093  RH  088%=      5-min Rain = 0
KPPS 181330Z 20008KT 12/09 A2981 RMK A01 T01180093  RH  087%=      5-min Rain = 0
KPPS 181335Z 21007KT 12/09 A2982 RMK A01 T01190093  RH  087%=      5-min Rain = 0
KPPS 181340Z 20007KT 12/09 A2981 RMK A01 T01190094  RH  087%=      5-min Rain = 0
KPPS 181345Z 19008KT 12/09 A2981 RMK A01 T01210094  RH  086%=      5-min Rain = 0
KPPS 181350Z 19009KT 12/09 A2981 RMK A01 T01210094  RH  086%=      5-min Rain = 0
KPPS 181355Z 19011KT 12/10 A2981 RMK A01 T01240095  RH  085%=      5-min Rain = 0
KPPS 181400Z 19010KT 13/10 A2981 RMK A01 T01280095  RH  083%=      5-min Rain = 0
KPPS 181405Z 19010KT 13/10 A2981 RMK A01 T01310096  RH  082%=      5-min Rain = 0
KPPS 181410Z 18010KT 13/10 A2981 RMK A01 T01340096  RH  080%=      5-min Rain = 0
KPPS 181415Z 19011KT 14/10 A2981 RMK A01 T01380096  RH  078%=      5-min Rain = 0
KPPS 181420Z 18011KT 14/10 A2981 RMK A01 T01420097  RH  077%=      5-min Rain = 0
KPPS 181425Z 18011KT 15/10 A2981 RMK A01 T01460097  RH  075%=      5-min Rain = 0
KPPS 181430Z 19010KT 15/10 A2981 RMK A01 T01510098  RH  073%=      5-min Rain = 0
KPPS 181435Z 19009KT 15/10 A2981 RMK A01 T01520098  RH  072%=      5-min Rain = 0
KPPS 181440Z 19009KT 16/10 A2981 RMK A01 T01560099  RH  071%=      5-min Rain = 0
KPPS 181445Z 19010KT 16/10 A2981 RMK A01 T01600099  RH  069%=      5-min Rain = 0
KPPS 181450Z 19010KT 16/10 A298 RMK A01 T01640100  RH  068%=      5-min Rain = 0
KPPS 181455Z 20011G16KT 17/10 A298 RMK A01 T01680100  RH  066%=      5-min Rain = 0
KPPS 181500Z 21012G17KT 17/10 A2981 RMK A01 T01710100  RH  065%=      5-min Rain = 0
KPPS 181505Z 22011G16KT 18/10 A2981 RMK A01 T01750101  RH  064%=      5-min Rain = 0
KPPS 181510Z 21011KT 18/10 A2981 RMK A01 T01800102  RH  062%=      5-min Rain = 0
KPPS 181515Z 21013KT 19/10 A2981 RMK A01 T01860104  RH  061%=      5-min Rain = 0
KPPS 181520Z 21013KT 19/11 A2981 RMK A01 T01900105  RH  060%=      5-min Rain = 0
KPPS 181525Z 21013G19KT 20/11 A298 RMK A01 T01960107  RH  058%=      5-min Rain = 0
KPPS 181530Z 21015G20KT 20/11 A298 RMK A01 T02000107  RH  057%=      5-min Rain = 0
KPPS 181535Z 21014G21KT 21/11 A298 RMK A01 T02060109  RH  055%=      5-min Rain = 0
KPPS 181540Z 22014G20KT 21/11 A298 RMK A01 T02110109  RH  054%=      5-min Rain = 0
KPPS 181545Z 21014G20KT 21/11 A298 RMK A01 T02140110  RH  053%=      5-min Rain = 0
KPPS 181550Z 21013G19KT 22/11 A298 RMK A01 T02180112  RH  053%=      5-min Rain = 0
KPPS 181555Z 22014G19KT 22/11 A298 RMK A01 T02210112  RH  052%=      5-min Rain = 0
KPPS 181600Z 22014G19KT 23/12 A298 RMK A01 T02260115  RH  051%=      5-min Rain = 0
KPPS 181605Z 22016G21KT 23/12 A298 RMK A01 T02290115  RH  050%=      5-min Rain = 0
KPPS 181610Z 23015G22KT 23/12 A298 RMK A01 T02340117  RH  050%=      5-min Rain = 0
KPPS 181615Z 23018G23KT 24/12 A2979 RMK A01 T02350117  RH  049%=      5-min Rain = 0
KPPS 181620Z 23017G25KT 24/12 A2979 RMK A01 T02380117  RH  048%=      5-min Rain = 0
KPPS 181625Z 23017G25KT 24/12 A2979 RMK A01 T02420117  RH  047%=      5-min Rain = 0
KPPS 181630Z 23018G24KT 24/12 A2979 RMK A01 T02440115  RH  046%=      5-min Rain = 0
KPPS 181635Z 23018G26KT 25/11 A2979 RMK A01 T02460112  RH  045%=      5-min Rain = 0
KPPS 181640Z 23019G24KT 25/11 A2978 RMK A01 T02460112  RH  044%=      5-min Rain = 0
KPPS 181645Z 23018G26KT 25/11 A2978 RMK A01 T02460111  RH  044%=      5-min Rain = 0
KPPS 181650Z 23017G23KT 25/11 A2979 RMK A01 T02510114  RH  044%=      5-min Rain = 0
KPPS 181655Z 24020G28KT 25/11 A2979 RMK A01 T02490113  RH  044%=      5-min Rain = 0
KPPS 181700Z 23018G23KT 25/11 A2978 RMK A01 T02480113  RH  044%=      5-min Rain = 0
KPPS 181705Z 23017G22KT 25/11 A2978 RMK A01 T02480114  RH  045%=      5-min Rain = 0
KPPS 181710Z 22017G24KT 25/11 A2978 RMK A01 T02490114  RH  044%=      5-min Rain = 0
KPPS 181715Z 22016G22KT 25/11 A2978 RMK A01 T02530112  RH  043%=      5-min Rain = 0
KPPS 181720Z 23019G25KT 26/11 A2978 RMK A01 T02590105  RH  039%=      5-min Rain = 0
KPPS 181725Z 24019G25KT 26/10 A2978 RMK A01 T02590104  RH  039%=      5-min Rain = 0
KPPS 181730Z 23019G25KT 26/10 A2978 RMK A01 T02590103  RH  039%=      5-min Rain = 0
KPPS 181735Z 24019G25KT 26/10 A2977 RMK A01 T02610104  RH  039%=      5-min Rain = 0
KPPS 181740Z 24017G26KT 26/10 A2977 RMK A01 T02640104  RH  038%=      5-min Rain = 0
KPPS 181745Z 24023KT 26/09 A2977 RMK A01 T02630093  RH  035%=      5-min Rain = 0
KPPS 181750Z 24019G28KT 26/09 A2977 RMK A01 T02640094  RH  035%=      5-min Rain = 0
KPPS 181755Z 25020G27KT 27/09 A2977 RMK A01 T02700085  RH  032%=      5-min Rain = 0
KPPS 181800Z 25020G26KT 27/08 A2977 RMK A01 T02690079  RH  031%=      5-min Rain = 0
KPPS 181805Z 24019G25KT 27/08 A2976 RMK A01 T02680079  RH  031%=      5-min Rain = 0
KPPS 181810Z 24018G24KT 27/08 A2976 RMK A01 T02680077  RH  031%=      5-min Rain = 0
KPPS 181815Z 24017G22KT 27/08 A2976 RMK A01 T02690080  RH  031%=      5-min Rain = 0
KPPS 181820Z 24015G21KT 27/09 A2975 RMK A01 T02720087  RH  032%=      5-min Rain = 0
KPPS 181825Z 24017G23KT 27/09 A2975 RMK A01 T02700086  RH  032%=      5-min Rain = 0
KPPS 181830Z 23017G23KT 27/09 A2975 RMK A01 T02690085  RH  032%=      5-min Rain = 0
KPPS 181835Z 23017G22KT 27/09 A2975 RMK A01 T02670088  RH  033%=      5-min Rain = 0
KPPS 181840Z 23019G26KT 27/08 A2974 RMK A01 T02680083  RH  032%=      5-min Rain = 0
KPPS 181845Z 23018G26KT 27/08 A2974 RMK A01 T02700081  RH  031%=      5-min Rain = 0
KPPS 181850Z 23016G21KT 27/08 A2974 RMK A01 T02710082  RH  031%=      5-min Rain = 0
KPPS 181855Z 24018G25KT 27/08 A2974 RMK A01 T02720079  RH  030%=      5-min Rain = 0
KPPS 181900Z 23018G26KT 27/08 A2973 RMK A01 T02730079  RH  030%=      5-min Rain = 0
KPPS 181905Z 24019G27KT 27/08 A2973 RMK A01 T02720077  RH  030%=      5-min Rain = 0
KPPS 181910Z 24019G27KT 27/08 A2973 RMK A01 T02720084  RH  031%=      5-min Rain = 0
KPPS 181915Z 23019G25KT 27/09 A2972 RMK A01 T02720085  RH  032%=      5-min Rain = 0
KPPS 181920Z 25018G24KT 27/09 A2972 RMK A01 T02720089  RH  033%=      5-min Rain = 0
KPPS 181925Z 23018G26KT 27/09 A2972 RMK A01 T02710090  RH  033%=      5-min Rain = 0
KPPS 181930Z 23017G24KT 27/09 A2972 RMK A01 T02730091  RH  033%=      5-min Rain = 0
KPPS 181935Z 22018G26KT 27/09 A2971 RMK A01 T02710089  RH  033%=      5-min Rain = 0
KPPS 181940Z 25019G28KT 28/08 A2971 RMK A01 T02770081  RH  030%=      5-min Rain = 0
KPPS 181945Z 26017G23KT 28/08 A2971 RMK A01 T02770076  RH  029%=      5-min Rain = 0
KPPS 181950Z 24016G25KT 28/08 A2971 RMK A01 T02780080  RH  029%=      5-min Rain = 0
KPPS 181955Z 25017G24KT 28/08 A2971 RMK A01 T02790081  RH  030%=      5-min Rain = 0
KPPS 182000Z 26020G28KT 28/08 A297 RMK A01 T02780078  RH  029%=      5-min Rain = 0
KPPS 182005Z 25018G27KT 28/08 A2971 RMK A01 T02770076  RH  029%=      5-min Rain = 0
KPPS 182010Z 24016G25KT 28/08 A297 RMK A01 T02770078  RH  029%=      5-min Rain = 0
KPPS 182015Z 25019G25KT 28/07 A297 RMK A01 T02770074  RH  028%=      5-min Rain = 0
KPPS 182020Z 25018G24KT 28/07 A297 RMK A01 T02800072  RH  028%=      5-min Rain = 0
KPPS 182025Z 24016G23KT 28/07 A297 RMK A01 T02780070  RH  028%=      5-min Rain = 0
KPPS 182030Z 23019G26KT 28/07 A297 RMK A01 T02780070  RH  027%=      5-min Rain = 0
KPPS 182035Z 24017G23KT 28/07 A297 RMK A01 T02780069  RH  027%=      5-min Rain = 0
KPPS 182040Z 25016G23KT 28/07 A297 RMK A01 T02780069  RH  027%=      5-min Rain = 0
KPPS 182045Z 25017G27KT 28/07 A2969 RMK A01 T02810069  RH  027%=      5-min Rain = 0
KPPS 182050Z 24018G24KT 28/06 A2969 RMK A01 T02800064  RH  026%=      5-min Rain = 0
KPPS 182055Z 25016G26KT 28/07 A2969 RMK A01 T02790070  RH  027%=      5-min Rain = 0
KPPS 182100Z 24017G24KT 28/07 A2969 RMK A01 T02780069  RH  027%=      5-min Rain = 0
KPPS 182105Z 24017G22KT 28/07 A2969 RMK A01 T02780072  RH  028%=      5-min Rain = 0
KPPS 182110Z 24017G24KT 28/07 A2969 RMK A01 T02790070  RH  027%=      5-min Rain = 0
KPPS 182115Z 23016G23KT 28/07 A2969 RMK A01 T02780069  RH  027%=      5-min Rain = 0
KPPS 182120Z 24018G25KT 28/07 A2969 RMK A01 T02770065  RH  027%=      5-min Rain = 0
KPPS 182125Z 23016G29KT 28/07 A2968 RMK A01 T02790067  RH  027%=      5-min Rain = 0
KPPS 182130Z 25020G25KT 28/06 A2968 RMK A01 T02800060  RH  025%=      5-min Rain = 0
KPPS 182135Z 25019G24KT 28/06 A2969 RMK A01 T02810059  RH  025%=      5-min Rain = 0
KPPS 182140Z 23015G21KT 28/06 A2968 RMK A01 T02810062  RH  025%=      5-min Rain = 0
KPPS 182145Z 25021G26KT 28/05 A2968 RMK A01 T02810054  RH  024%=      5-min Rain = 0
KPPS 182150Z 26018G23KT 28/05 A2969 RMK A01 T02810046  RH  023%=      5-min Rain = 0
KPPS 182155Z 25017G22KT 28/06 A2969 RMK A01 T02830057  RH  024%=      5-min Rain = 0
KPPS 182200Z 25017G26KT 28/06 A2969 RMK A01 T02800058  RH  025%=      5-min Rain = 0
KPPS 182205Z 24020G26KT 28/05 A2969 RMK A01 T02800049  RH  023%=      5-min Rain = 0
KPPS 182210Z 24019G28KT 28/05 A2968 RMK A01 T02790046  RH  023%=      5-min Rain = 0
KPPS 182215Z 24020KT 28/04 A2968 RMK A01 T02790044  RH  023%=      5-min Rain = 0
KPPS 182220Z 23019G28KT 28/04 A2969 RMK A01 T02800042  RH  022%=      5-min Rain = 0
KPPS 182225Z 24020G27KT 28/04 A2969 RMK A01 T02790041  RH  022%=      5-min Rain = 0
KPPS 182230Z 24018G23KT 28/04 A2969 RMK A01 T02790042  RH  022%=      5-min Rain = 0
KPPS 182235Z 23015G20KT 28/05 A2969 RMK A01 T02770047  RH  024%=      5-min Rain = 0
KPPS 182240Z 25016G22KT 28/05 A2969 RMK A01 T02770047  RH  023%=      5-min Rain = 0
KPPS 182245Z 25015G21KT 28/04 A2969 RMK A01 T02780042  RH  023%=      5-min Rain = 0
KPPS 182250Z 24016G23KT 28/04 A2969 RMK A01 T02770035  RH  022%=      5-min Rain = 0
KPPS 182255Z 24019G24KT 27/03 A297 RMK A01 T02710032  RH  022%=      5-min Rain = 0
KPPS 182300Z 25019G24KT 27/03 A297 RMK A01 T02680034  RH  023%=      5-min Rain = 0
KPPS 182305Z 24015G23KT 27/04 A297 RMK A01 T02670036  RH  023%=      5-min Rain = 0
KPPS 182310Z 23012G17KT 27/04 A297 RMK A01 T02660038  RH  024%=      5-min Rain = 0
KPPS 182315Z 23011KT 26/04 A297 RMK A01 T02600044  RH  025%=      5-min Rain = 0
KPPS 182320Z 23011KT 26/05 A297 RMK A01 T02580046  RH  026%=      5-min Rain = 0
KPPS 182325Z 23009G15KT 26/05 A297 RMK A01 T02560050  RH  027%=      5-min Rain = 0
KPPS 182330Z 25012G17KT 25/05 A2971 RMK A01 T02540048  RH  027%=      5-min Rain = 0
KPPS 182335Z 25013KT 25/05 A2971 RMK A01 T02540047  RH  027%=      5-min Rain = 0
KPPS 182340Z 26017G28KT 25/06 A2971 RMK A01 T02540055  RH  029%=      5-min Rain = 0
KPPS 182345Z 27014G22KT 24/08 A2971 RMK A01 T02390075  RH  036%=      5-min Rain = 0
KPPS 182350Z 28018G26KT 24/06 A2971 RMK A01 T02400063  RH  033%=      5-min Rain = 0
KPPS 182355Z 27014G26KT 23/08 A2972 RMK A01 T02320076  RH  038%=      5-min Rain = 0
KPPS 190000Z 25009KT 22/09 A2971 RMK A01 T02230088  RH  043%=      5-min Rain = 0
KPPS 190005Z 26018G31KT 22/09 A2972 RMK A01 T02170086  RH  044%=      5-min Rain = 0
KPPS 190010Z 25016G24KT 22/08 A2974 RMK A01 T02150075  RH  042%=      5-min Rain = 0
KPPS 190015Z 29019G27KT 20/09 A2975 RMK A01 T02040085  RH  048%=      5-min Rain = 0
KPPS 190020Z 27018G26KT 20/08 A2976 RMK A01 T02030082  RH  047%=      5-min Rain = 0.01
KPPS 190025Z 27017G28KT 20/08 A2977 RMK A01 T02000081  RH  047%=      5-min Rain = 0
KPPS 190030Z 28013KT 20/09 A2977 RMK A01 T01960086  RH  051%=      5-min Rain = 0
KPPS 190035Z 30019G24KT 20/08 A2976 RMK A01 T01990076  RH  046%=      5-min Rain = 0
KPPS 190040Z 29015G23KT 20/08 A2976 RMK A01 T02010075  RH  046%=      5-min Rain = 0
KPPS 190045Z 30020G26KT 20/07 A2977 RMK A01 T02020072  RH  044%=      5-min Rain = 0
KPPS 190050Z 30016G21KT 20/07 A2977 RMK A01 T02030069  RH  043%=      5-min Rain = 0
KPPS 190055Z 29015KT 20/07 A2978 RMK A01 T02000072  RH  045%=      5-min Rain = 0
KPPS 190100Z 29014G20KT 20/07 A2978 RMK A01 T02000073  RH  045%=      5-min Rain = 0
KPPS 190105Z 29011KT 19/08 A2978 RMK A01 T01920081  RH  050%=      5-min Rain = 0
KPPS 190110Z 29011KT 19/08 A2978 RMK A01 T01880083  RH  052%=      5-min Rain = 0
KPPS 190115Z 29011KT 19/08 A2978 RMK A01 T01910078  RH  049%=      5-min Rain = 0
KPPS 190120Z 30010KT 19/08 A2978 RMK A01 T01910076  RH  048%=      5-min Rain = 0
KPPS 190125Z 29009KT 19/08 A2979 RMK A01 T01890077  RH  049%=      5-min Rain = 0
KPPS 190130Z 28009KT 18/08 A2979 RMK A01 T01840079  RH  052%=      5-min Rain = 0
KPPS 190135Z 29009KT 18/08 A2979 RMK A01 T01800078  RH  053%=      5-min Rain = 0
KPPS 190140Z 29008KT 18/08 A2979 RMK A01 T01770077  RH  053%=      5-min Rain = 0
KPPS 190145Z 29007KT 18/08 A2979 RMK A01 T01750076  RH  054%=      5-min Rain = 0
KPPS 190150Z 28008KT 17/07 A2979 RMK A01 T01730073  RH  053%=      5-min Rain = 0
KPPS 190155Z 28007KT 17/07 A2979 RMK A01 T01690074  RH  055%=      5-min Rain = 0
KPPS 190200Z 29007KT 17/08 A2979 RMK A01 T01660077  RH  057%=      5-min Rain = 0
KPPS 190205Z 28006KT 16/08 A2979 RMK A01 T01640077  RH  058%=      5-min Rain = 0
KPPS 190210Z 28006KT 16/08 A2979 RMK A01 T01620077  RH  059%=      5-min Rain = 0
KPPS 190215Z 27006KT 16/08 A2978 RMK A01 T01580078  RH  061%=      5-min Rain = 0
KPPS 190220Z 28006KT 15/08 A2978 RMK A01 T01540079  RH  063%=      5-min Rain = 0
KPPS 190225Z 27005KT 15/08 A2978 RMK A01 T01490079  RH  065%=      5-min Rain = 0
KPPS 190230Z 24005KT 15/08 A2979 RMK A01 T01470079  RH  066%=      5-min Rain = 0
KPPS 190235Z 23005KT 15/08 A2979 RMK A01 T01490079  RH  065%=      5-min Rain = 0
KPPS 190240Z 24005KT 15/08 A2979 RMK A01 T01490077  RH  064%=      5-min Rain = 0
KPPS 190245Z 22005KT 15/08 A2979 RMK A01 T01490077  RH  064%=      5-min Rain = 0
KPPS 190250Z 22006KT 15/08 A298 RMK A01 T01470078  RH  065%=      5-min Rain = 0
KPPS 190255Z 23006KT 15/08 A298 RMK A01 T01460078  RH  065%=      5-min Rain = 0
KPPS 190300Z 24006KT 15/08 A2979 RMK A01 T01450077  RH  065%=      5-min Rain = 0
KPPS 190305Z 24006KT 14/08 A298 RMK A01 T01410077  RH  067%=      5-min Rain = 0
KPPS 190310Z 24007KT 14/08 A298 RMK A01 T01370076  RH  069%=      5-min Rain = 0
KPPS 190315Z 23006KT 13/08 A298 RMK A01 T01340076  RH  070%=      5-min Rain = 0
KPPS 190320Z 23006KT 14/08 A2981 RMK A01 T01350075  RH  069%=      5-min Rain = 0
KPPS 190325Z 23006KT 13/08 A2981 RMK A01 T01320077  RH  071%=      5-min Rain = 0
KPPS 190330Z 23007KT 13/08 A2981 RMK A01 T01270080  RH  075%=      5-min Rain = 0
KPPS 190335Z 23007KT 13/08 A2981 RMK A01 T01290082  RH  075%=      5-min Rain = 0
KPPS 190340Z 24007KT 13/08 A2981 RMK A01 T01250083  RH  078%=      5-min Rain = 0
KPPS 190345Z 24007KT 12/08 A2981 RMK A01 T01230082  RH  079%=      5-min Rain = 0
KPPS 190350Z 24008KT 12/08 A2981 RMK A01 T01200082  RH  080%=      5-min Rain = 0
KPPS 190355Z 25008KT 12/08 A2981 RMK A01 T01170082  RH  081%=      5-min Rain = 0
KPPS 190400Z 26008KT 12/08 A2981 RMK A01 T01150081  RH  082%=      5-min Rain = 0
KPPS 190405Z 26008KT 12/08 A2981 RMK A01 T01160079  RH  080%=      5-min Rain = 0
KPPS 190410Z 26008KT 12/08 A2981 RMK A01 T01160078  RH  080%=      5-min Rain = 0
KPPS 190415Z 26008KT 12/08 A2981 RMK A01 T01160077  RH  079%=      5-min Rain = 0
KPPS 190420Z 27008KT 12/08 A2981 RMK A01 T01160077  RH  079%=      5-min Rain = 0
KPPS 190425Z 27009KT 12/08 A2981 RMK A01 T01170077  RH  079%=      5-min Rain = 0
KPPS 190430Z 27008KT 12/08 A2981 RMK A01 T01160077  RH  079%=      5-min Rain = 0
KPPS 190435Z 27008KT 12/08 A2981 RMK A01 T01150076  RH  079%=      5-min Rain = 0
KPPS 190440Z 27008KT 11/08 A2981 RMK A01 T01140076  RH  079%=      5-min Rain = 0
KPPS 190445Z 27009KT 11/08 A2981 RMK A01 T01130075  RH  079%=      5-min Rain = 0
KPPS 190450Z 27009KT 11/07 A2981 RMK A01 T01130074  RH  079%=      5-min Rain = 0
KPPS 190455Z 27008KT 11/07 A2981 RMK A01 T01100073  RH  080%=      5-min Rain = 0

Page generated in 0.0092 seconds.